Dickinson Theodore Roosevelt Regional Airport Dickinson US
ICAO: KDIK
IATA: DIK
Category: Medium
Scheduled Services: No

Elevation: 2592 ft
TransAlt. 18000 ft.

Airport Communications:
MINNEAPOLIS CNTR:124.25
GRAND FORKS RDO:122.2
CTAF/UNICOM:123

KDIK Zoom In..

If you have problems with the map follow the link
https://www.worldairports.se/pages/airport.php?
ICAO=KDIK

Runways:

(A) RW 07 length 4699 ft width 75 ft
---- / hdg 70

(B) RW 14 length 6399 ft width 100 ft
---- / hdg 140

(C) RW 25 length 4699 ft width 75 ft
---- / hdg 250

(D) RW 32 length 6399 ft width 100 ft
ILS 108.30 / hdg 320

Location; KDIK
Day. 19 / Time. 12.56 Zulu
* Altimeter: 30.11
* Temperature: -08° c. -17.6°f.
* Wind from: 050° Speed 06 kn.
Dewpoint: -10° c.
Visibility: 3 Statute Miles.
Clouds: Overcast 300 ft.
Conditions: Mist.

KDIK 191256Z AUTO 05006KT 3SM BR OVC003 M08/M10 A3011 RMK AO2 SLP233 I1001 T10831100


Wind From 050°
Speed 06 kn.

 
 
jpsmedia.com for Web Design worldairports.se 2018   terms of use